Time;durP1;ratioP1;P1;durP2;ratioP2;P2;SDS_P1;SDS_P2;PMS_P1;PMS_P2;Temp;Humidity;BMP_temperature;BMP_pressure;BME280_temperature;BME280_humidity;BME280_pressure;Samples;Min_cycle;Max_cycle;Signal;HPM_P1;HPM_P2
2023/01/16 00:01:00;;;;;;;9.75;2.65;;;;;;;;;;5005048;27;98596;-74
2023/01/16 00:03:26;;;;;;;7.93;2.83;;;;;;;;;;5001243;28;99693;-74
2023/01/16 00:05:53;;;;;;;5.65;2.55;;;;;;;;;;5008769;28;98472;-75
2023/01/16 00:08:19;;;;;;;5.80;2.90;;;;;;;;;;5011254;28;99453;-74
2023/01/16 00:10:46;;;;;;;7.00;3.00;;;;;;;;;;5021305;27;98271;-74
2023/01/16 00:13:12;;;;;;;7.75;3.03;;;;;;;;;;5028589;27;98962;-74
2023/01/16 00:15:46;;;;;;;4.80;3.03;;;;;;;;;;5022637;28;99917;-74
2023/01/16 00:18:13;;;;;;;4.80;2.80;;;;;;;;;;5013843;27;98128;-74
2023/01/16 00:20:40;;;;;;;5.72;2.92;;;;;;;;;;5028767;27;99667;-75
2023/01/16 00:23:06;;;;;;;4.22;3.03;;;;;;;;;;5027442;28;100062;-74
2023/01/16 00:25:32;;;;;;;6.55;3.72;;;;;;;;;;5032708;28;98446;-74
2023/01/16 00:27:59;;;;;;;3.67;3.30;;;;;;;;;;5027987;28;99999;-74
2023/01/16 00:30:26;;;;;;;7.80;3.83;;;;;;;;;;5028321;27;99391;-74
2023/01/16 00:32:52;;;;;;;5.85;3.35;;;;;;;;;;5010154;28;99327;-74
2023/01/16 00:35:18;;;;;;;5.43;3.00;;;;;;;;;;5028502;27;101501;-74
2023/01/16 00:37:45;;;;;;;3.50;3.00;;;;;;;;;;5028102;28;98439;-74
2023/01/16 00:40:11;;;;;;;7.10;3.15;;;;;;;;;;5028446;27;99482;-74
2023/01/16 00:42:37;;;;;;;5.00;3.70;;;;;;;;;;5028082;27;100247;-74
2023/01/16 00:45:04;;;;;;;10.30;3.80;;;;;;;;;;5023256;28;98237;-75
2023/01/16 00:47:30;;;;;;;6.53;3.88;;;;;;;;;;5032051;27;98862;-74
2023/01/16 00:49:57;;;;;;;9.05;3.97;;;;;;;;;;5026415;27;98548;-75
2023/01/16 00:52:23;;;;;;;7.63;4.80;;;;;;;;;;5023044;27;99775;-74
2023/01/16 00:54:49;;;;;;;8.32;4.95;;;;;;;;;;5021590;27;99162;-74
2023/01/16 00:57:16;;;;;;;7.20;4.88;;;;;;;;;;5010066;28;98276;-75
2023/01/16 00:59:42;;;;;;;10.82;6.47;;;;;;;;;;5023106;28;98853;-74
2023/01/16 01:02:09;;;;;;;8.77;5.50;;;;;;;;;;5027248;28;99923;-74
2023/01/16 01:04:35;;;;;;;5.85;5.35;;;;;;;;;;5021669;28;98863;-74
2023/01/16 01:07:01;;;;;;;7.43;6.13;;;;;;;;;;5020043;27;98639;-73
2023/01/16 01:09:28;;;;;;;7.78;6.50;;;;;;;;;;5018939;27;100143;-74
2023/01/16 01:11:55;;;;;;;8.93;7.65;;;;;;;;;;5027513;28;98754;-74
2023/01/16 01:14:22;;;;;;;8.93;8.13;;;;;;;;;;5022547;28;99227;-74
2023/01/16 01:16:48;;;;;;;9.27;7.93;;;;;;;;;;5022013;28;98494;-74
2023/01/16 01:19:15;;;;;;;12.30;8.27;;;;;;;;;;5028170;28;99551;-74
2023/01/16 01:21:41;;;;;;;10.38;9.10;;;;;;;;;;5017780;28;99908;-74
2023/01/16 01:24:08;;;;;;;12.98;9.05;;;;;;;;;;5026233;28;98595;-74
2023/01/16 01:26:35;;;;;;;13.68;9.45;;;;;;;;;;5016389;27;99829;-75
2023/01/16 01:29:01;;;;;;;12.10;10.05;;;;;;;;;;5026970;27;99048;-74
2023/01/16 01:31:28;;;;;;;16.75;9.55;;;;;;;;;;5011541;28;98301;-73
2023/01/16 01:33:54;;;;;;;12.45;9.55;;;;;;;;;;5022787;28;100061;-74
2023/01/16 01:36:20;;;;;;;13.65;9.55;;;;;;;;;;5026901;27;99063;-73
2023/01/16 01:38:49;;;;;;;16.35;10.15;;;;;;;;;;5020808;27;99493;-73
2023/01/16 01:41:16;;;;;;;22.15;11.30;;;;;;;;;;5010330;28;99924;-74
2023/01/16 01:43:47;;;;;;;12.45;9.65;;;;;;;;;;5034717;27;99884;-74
2023/01/16 01:46:17;;;;;;;12.73;10.00;;;;;;;;;;5027055;27;99633;-73
2023/01/16 01:48:44;;;;;;;14.65;10.65;;;;;;;;;;5027817;28;100370;-74
2023/01/16 01:51:17;;;;;;;21.15;12.68;;;;;;;;;;5011924;28;98371;-74
2023/01/16 01:53:49;;;;;;;12.20;10.10;;;;;;;;;;5031779;28;99746;-74
2023/01/16 01:56:22;;;;;;;15.43;10.35;;;;;;;;;;5024131;28;98269;-74
2023/01/16 01:58:51;;;;;;;23.38;11.07;;;;;;;;;;5030270;27;98535;-74
2023/01/16 02:01:17;;;;;;;17.20;11.90;;;;;;;;;;5018580;27;99411;-74
2023/01/16 02:03:50;;;;;;;17.33;10.05;;;;;;;;;;5032246;27;98245;-74
2023/01/16 02:06:20;;;;;;;16.52;10.48;;;;;;;;;;5025337;28;98195;-74
2023/01/16 02:08:47;;;;;;;11.57;10.18;;;;;;;;;;5029499;28;100391;-74
2023/01/16 02:11:25;;;;;;;18.98;10.07;;;;;;;;;;5009704;28;99038;-74
2023/01/16 02:13:55;;;;;;;12.95;10.30;;;;;;;;;;5020938;28;99004;-73
2023/01/16 02:19:15;;;;;;;16.85;9.98;;;;;;;;;;5023287;27;99610;-74
2023/01/16 02:21:48;;;;;;;15.35;10.68;;;;;;;;;;5022924;27;100009;-74
2023/01/16 02:24:32;;;;;;;10.95;9.45;;;;;;;;;;5018464;28;98205;-75
2023/01/16 02:27:17;;;;;;;16.00;9.35;;;;;;;;;;5029646;27;98636;-73
2023/01/16 02:30:03;;;;;;;18.08;8.55;;;;;;;;;;5029109;28;99230;-74
2023/01/16 02:32:33;;;;;;;15.57;8.70;;;;;;;;;;5018926;28;98340;-74
2023/01/16 02:35:08;;;;;;;16.63;8.32;;;;;;;;;;5026389;27;98646;-74
2023/01/16 02:37:37;;;;;;;15.05;8.07;;;;;;;;;;5032563;28;99953;-74
2023/01/16 02:40:21;;;;;;;9.55;8.43;;;;;;;;;;5014163;28;99359;-74
2023/01/16 02:42:47;;;;;;;11.80;7.63;;;;;;;;;;5023704;28;99650;-74
2023/01/16 02:45:19;;;;;;;11.23;7.07;;;;;;;;;;5034751;27;98331;-75
2023/01/16 02:47:46;;;;;;;7.90;6.55;;;;;;;;;;5037429;28;99725;-74
2023/01/16 02:50:12;;;;;;;12.82;6.22;;;;;;;;;;5023540;27;99463;-74
2023/01/16 02:52:38;;;;;;;10.02;5.93;;;;;;;;;;5027575;28;99281;-74
2023/01/16 02:55:12;;;;;;;10.50;6.82;;;;;;;;;;5023946;28;99795;-74
2023/01/16 02:57:41;;;;;;;10.60;5.55;;;;;;;;;;5024678;28;100017;-74
2023/01/16 03:00:08;;;;;;;16.17;5.80;;;;;;;;;;5033797;27;98271;-74
2023/01/16 03:02:35;;;;;;;9.23;4.85;;;;;;;;;;5029145;27;100137;-74
2023/01/16 03:05:01;;;;;;;12.10;5.80;;;;;;;;;;5028827;27;98247;-74
2023/01/16 03:07:31;;;;;;;12.23;4.60;;;;;;;;;;5030685;27;98739;-74
2023/01/16 03:10:00;;;;;;;7.47;5.05;;;;;;;;;;5027470;27;100433;-74
2023/01/16 03:12:40;;;;;;;5.22;3.75;;;;;;;;;;5029274;27;98247;-74
2023/01/16 03:15:07;;;;;;;7.72;3.70;;;;;;;;;;5030288;27;98634;-74
2023/01/16 03:17:36;;;;;;;10.02;3.92;;;;;;;;;;5019948;28;99905;-74
2023/01/16 03:20:21;;;;;;;7.95;3.80;;;;;;;;;;5025183;27;98306;-74
2023/01/16 03:22:52;;;;;;;5.47;2.92;;;;;;;;;;5023103;27;98684;-75
2023/01/16 03:25:27;;;;;;;10.43;4.10;;;;;;;;;;5023549;27;98708;-74
2023/01/16 03:27:53;;;;;;;6.00;2.90;;;;;;;;;;5029872;27;98742;-74
2023/01/16 03:30:20;;;;;;;6.55;3.22;;;;;;;;;;5025605;27;100360;-74
2023/01/16 03:32:50;;;;;;;7.47;3.85;;;;;;;;;;5027910;28;98258;-73
2023/01/16 03:35:19;;;;;;;9.82;3.63;;;;;;;;;;5030090;27;98695;-73
2023/01/16 03:37:53;;;;;;;4.22;3.15;;;;;;;;;;5026550;27;101109;-74
2023/01/16 03:40:25;;;;;;;13.10;3.90;;;;;;;;;;5028865;28;98256;-73
2023/01/16 03:43:07;;;;;;;5.32;3.25;;;;;;;;;;5025431;27;99431;-73
2023/01/16 03:45:33;;;;;;;13.60;3.58;;;;;;;;;;5027559;28;100096;-74
2023/01/16 03:48:09;;;;;;;7.32;3.08;;;;;;;;;;5029462;28;99357;-74
2023/01/16 03:50:37;;;;;;;6.65;3.78;;;;;;;;;;5028240;27;99364;-73
2023/01/16 03:53:05;;;;;;;8.27;2.80;;;;;;;;;;5028787;27;98382;-74
2023/01/16 03:55:49;;;;;;;10.80;3.33;;;;;;;;;;5029626;27;98968;-73
2023/01/16 03:58:27;;;;;;;6.20;3.00;;;;;;;;;;5021871;27;101639;-73
2023/01/16 04:01:04;;;;;;;7.72;2.63;;;;;;;;;;5026328;28;98270;-75
2023/01/16 04:03:37;;;;;;;8.95;3.00;;;;;;;;;;5028801;27;98424;-74
2023/01/16 04:06:11;;;;;;;5.20;2.47;;;;;;;;;;5028359;27;99485;-74
2023/01/16 04:08:38;;;;;;;14.43;4.38;;;;;;;;;;5032495;28;98213;-74
2023/01/16 04:11:05;;;;;;;6.00;2.60;;;;;;;;;;5022559;27;99025;-74
2023/01/16 04:13:33;;;;;;;10.13;2.83;;;;;;;;;;5023143;27;98673;-74
2023/01/16 04:16:01;;;;;;;8.43;3.05;;;;;;;;;;5029101;27;99319;-74
2023/01/16 04:18:30;;;;;;;9.27;2.88;;;;;;;;;;5027382;27;99328;-74
2023/01/16 04:20:57;;;;;;;9.30;2.40;;;;;;;;;;5021746;27;98734;-75
2023/01/16 04:23:23;;;;;;;5.40;3.08;;;;;;;;;;5019991;27;100235;-74
2023/01/16 04:25:50;;;;;;;8.93;2.85;;;;;;;;;;5021261;28;100554;-74
2023/01/16 04:28:16;;;;;;;10.50;2.50;;;;;;;;;;5018686;28;100375;-74
2023/01/16 04:30:43;;;;;;;5.70;2.67;;;;;;;;;;5032102;28;99862;-74
2023/01/16 04:33:09;;;;;;;12.07;2.78;;;;;;;;;;5025339;27;99757;-74
2023/01/16 04:35:35;;;;;;;4.47;2.15;;;;;;;;;;5025975;27;98529;-74
2023/01/16 04:38:02;;;;;;;11.98;3.33;;;;;;;;;;5028609;27;100056;-74
2023/01/16 04:40:28;;;;;;;5.65;2.35;;;;;;;;;;5027033;28;98283;-74
2023/01/16 04:42:55;;;;;;;8.63;2.78;;;;;;;;;;5028661;28;99525;-74
2023/01/16 04:45:21;;;;;;;6.00;2.45;;;;;;;;;;5028685;27;100024;-74
2023/01/16 04:47:48;;;;;;;8.90;2.60;;;;;;;;;;5026673;27;98265;-74
2023/01/16 04:50:15;;;;;;;12.60;2.92;;;;;;;;;;5032388;27;98776;-73
2023/01/16 04:52:41;;;;;;;5.88;2.80;;;;;;;;;;5028962;28;98328;-73
2023/01/16 04:55:08;;;;;;;7.80;2.85;;;;;;;;;;5026320;28;99311;-73
2023/01/16 04:57:35;;;;;;;5.05;2.53;;;;;;;;;;5028659;27;99030;-74
2023/01/16 05:00:03;;;;;;;6.32;2.28;;;;;;;;;;5026967;27;99286;-74
2023/01/16 05:02:29;;;;;;;2.83;2.00;;;;;;;;;;5022705;28;99369;-74
2023/01/16 05:04:55;;;;;;;7.90;2.55;;;;;;;;;;5028410;27;100090;-74
2023/01/16 05:07:22;;;;;;;6.00;1.95;;;;;;;;;;5027677;27;98321;-74
2023/01/16 05:09:49;;;;;;;8.00;2.53;;;;;;;;;;5027914;27;99417;-74
2023/01/16 05:12:15;;;;;;;11.32;2.80;;;;;;;;;;5031866;27;100135;-75
2023/01/16 05:14:41;;;;;;;9.38;2.80;;;;;;;;;;5020602;28;99453;-74
2023/01/16 05:17:08;;;;;;;9.35;3.10;;;;;;;;;;5024116;28;100068;-75
2023/01/16 05:19:34;;;;;;;7.07;2.67;;;;;;;;;;5028831;27;98298;-74
2023/01/16 05:22:01;;;;;;;9.23;2.70;;;;;;;;;;5027223;28;99428;-74
2023/01/16 05:24:27;;;;;;;4.00;2.53;;;;;;;;;;5028526;27;99962;-74
2023/01/16 05:26:53;;;;;;;7.10;2.95;;;;;;;;;;5031410;27;98315;-74
2023/01/16 05:29:20;;;;;;;9.25;2.83;;;;;;;;;;5018440;28;98465;-74
2023/01/16 05:31:46;;;;;;;5.20;2.92;;;;;;;;;;5020538;28;99993;-74
2023/01/16 05:34:12;;;;;;;10.32;2.33;;;;;;;;;;5027170;28;98686;-74
2023/01/16 05:36:39;;;;;;;9.70;2.42;;;;;;;;;;5015486;28;100070;-74
2023/01/16 05:39:05;;;;;;;4.07;2.47;;;;;;;;;;5027566;27;98568;-74
2023/01/16 05:41:31;;;;;;;3.40;2.92;;;;;;;;;;5024092;27;98738;-74
2023/01/16 05:43:58;;;;;;;7.50;3.33;;;;;;;;;;5030176;27;100557;-74
2023/01/16 05:46:24;;;;;;;7.15;2.03;;;;;;;;;;5031444;27;98390;-74
2023/01/16 05:48:51;;;;;;;11.18;2.90;;;;;;;;;;5024608;28;99652;-74
2023/01/16 05:51:17;;;;;;;9.82;3.13;;;;;;;;;;5030464;27;99092;-74
2023/01/16 05:53:48;;;;;;;8.43;2.42;;;;;;;;;;5030512;28;98263;-74
2023/01/16 05:56:14;;;;;;;3.70;2.10;;;;;;;;;;5033745;28;99542;-74
2023/01/16 05:58:41;;;;;;;3.85;2.20;;;;;;;;;;5031654;27;98315;-74
2023/01/16 06:01:07;;;;;;;4.20;2.25;;;;;;;;;;5021311;28;99397;-74
2023/01/16 06:03:34;;;;;;;8.98;3.22;;;;;;;;;;5028035;28;100134;-74
2023/01/16 06:06:00;;;;;;;8.00;3.00;;;;;;;;;;5030058;27;98282;-74
2023/01/16 06:08:27;;;;;;;7.35;2.78;;;;;;;;;;5029767;28;99432;-74
2023/01/16 06:10:53;;;;;;;8.25;2.90;;;;;;;;;;5030649;28;100014;-74
2023/01/16 06:13:19;;;;;;;8.68;2.72;;;;;;;;;;5029583;28;98373;-74
2023/01/16 06:15:46;;;;;;;8.07;2.97;;;;;;;;;;5025354;27;99382;-74
2023/01/16 06:18:14;;;;;;;9.45;2.92;;;;;;;;;;5034098;27;98749;-74
2023/01/16 06:20:40;;;;;;;12.63;2.47;;;;;;;;;;5029017;28;99867;-74
2023/01/16 06:23:08;;;;;;;7.18;3.00;;;;;;;;;;5030381;27;99168;-74
2023/01/16 06:25:34;;;;;;;5.95;2.58;;;;;;;;;;5031278;27;98304;-74
2023/01/16 06:28:01;;;;;;;9.00;2.42;;;;;;;;;;5024390;27;99919;-74
2023/01/16 06:30:27;;;;;;;4.72;2.35;;;;;;;;;;5031101;27;99133;-74
2023/01/16 06:32:54;;;;;;;4.43;2.40;;;;;;;;;;5030750;27;98515;-74
2023/01/16 06:35:20;;;;;;;8.73;2.35;;;;;;;;;;5025251;28;99497;-74
2023/01/16 06:37:46;;;;;;;8.95;2.65;;;;;;;;;;5024053;27;99258;-74
2023/01/16 06:40:13;;;;;;;4.68;2.30;;;;;;;;;;5023859;28;98752;-74
2023/01/16 06:42:39;;;;;;;4.03;2.22;;;;;;;;;;5017597;27;99143;-74
2023/01/16 06:45:06;;;;;;;9.93;2.92;;;;;;;;;;5024548;28;98393;-73
2023/01/16 06:47:33;;;;;;;8.18;2.90;;;;;;;;;;5024303;28;100949;-73
2023/01/16 06:49:59;;;;;;;6.72;3.90;;;;;;;;;;5025264;28;99701;-74
2023/01/16 06:52:25;;;;;;;6.45;2.60;;;;;;;;;;5021762;28;98630;-74
2023/01/16 06:54:52;;;;;;;10.60;2.95;;;;;;;;;;5015497;28;98483;-73
2023/01/16 06:57:18;;;;;;;6.22;3.10;;;;;;;;;;5020497;28;100213;-75
2023/01/16 06:59:44;;;;;;;7.45;2.50;;;;;;;;;;5028558;27;100005;-76
2023/01/16 07:02:11;;;;;;;10.52;2.85;;;;;;;;;;5024004;28;100562;-77
2023/01/16 07:04:37;;;;;;;13.23;2.35;;;;;;;;;;5019999;28;99506;-76
2023/01/16 07:07:03;;;;;;;6.13;2.63;;;;;;;;;;5019092;27;99911;-77
2023/01/16 07:09:30;;;;;;;8.82;2.72;;;;;;;;;;5017024;28;100067;-75
2023/01/16 07:11:56;;;;;;;7.82;2.25;;;;;;;;;;5024077;27;98268;-74
2023/01/16 07:22:42;;;;;;;9.30;2.90;;;;;;;;;;5030185;27;99733;-73
2023/01/16 07:25:12;;;;;;;15.07;2.22;;;;;;;;;;5015851;28;98330;-73
2023/01/16 07:27:39;;;;;;;5.32;2.03;;;;;;;;;;5020001;28;99402;-73
2023/01/16 07:30:06;;;;;;;6.80;2.50;;;;;;;;;;5022207;28;100073;-73
2023/01/16 07:32:33;;;;;;;10.57;3.00;;;;;;;;;;5059084;27;98317;-74
2023/01/16 07:35:01;;;;;;;9.32;3.05;;;;;;;;;;5018195;27;99527;-72
2023/01/16 07:37:27;;;;;;;6.57;2.08;;;;;;;;;;5021507;28;100055;-72
2023/01/16 07:39:54;;;;;;;5.75;2.10;;;;;;;;;;5026839;28;98288;-72
2023/01/16 07:42:20;;;;;;;7.80;2.58;;;;;;;;;;5015975;28;99624;-71
2023/01/16 07:44:46;;;;;;;3.55;1.77;;;;;;;;;;5020205;28;100174;-72
2023/01/16 07:47:14;;;;;;;3.92;2.08;;;;;;;;;;5016213;28;100113;-72
2023/01/16 07:49:40;;;;;;;4.28;2.38;;;;;;;;;;5027756;27;99895;-72
2023/01/16 07:52:06;;;;;;;6.10;2.65;;;;;;;;;;5025581;28;99268;-72
2023/01/16 07:54:35;;;;;;;2.65;2.17;;;;;;;;;;5019626;27;99870;-72
2023/01/16 07:57:02;;;;;;;7.60;3.38;;;;;;;;;;5022629;28;100246;-72
2023/01/16 07:59:28;;;;;;;10.18;2.97;;;;;;;;;;5022266;28;98307;-72
2023/01/16 08:01:55;;;;;;;3.53;2.42;;;;;;;;;;5022944;27;98188;-72
2023/01/16 08:04:21;;;;;;;7.35;3.00;;;;;;;;;;5031483;27;99322;-73
2023/01/16 08:06:48;;;;;;;15.90;3.17;;;;;;;;;;5025126;27;98333;-69
2023/01/16 08:09:14;;;;;;;4.93;2.13;;;;;;;;;;5022527;27;98815;-71
2023/01/16 08:11:46;;;;;;;5.40;3.15;;;;;;;;;;5030052;27;98581;-71
2023/01/16 08:14:13;;;;;;;5.03;3.00;;;;;;;;;;5018406;27;98891;-71
2023/01/16 08:16:39;;;;;;;7.60;2.53;;;;;;;;;;5016461;28;99903;-69
2023/01/16 08:19:05;;;;;;;9.43;2.88;;;;;;;;;;5013685;27;98286;-72
2023/01/16 08:21:32;;;;;;;7.43;3.67;;;;;;;;;;5016434;28;99687;-71
2023/01/16 08:23:58;;;;;;;12.00;4.22;;;;;;;;;;5026729;28;100186;-71
2023/01/16 08:26:25;;;;;;;9.00;3.53;;;;;;;;;;5027798;27;99293;-71
2023/01/16 08:28:52;;;;;;;4.53;4.10;;;;;;;;;;5021689;28;98486;-72
2023/01/16 08:31:19;;;;;;;6.05;4.47;;;;;;;;;;5018617;27;98751;-71
2023/01/16 08:33:46;;;;;;;7.68;4.32;;;;;;;;;;5023756;27;99808;-71
2023/01/16 08:36:15;;;;;;;5.72;4.30;;;;;;;;;;5010782;28;99200;-71
2023/01/16 08:38:42;;;;;;;3.50;3.00;;;;;;;;;;5021722;27;98262;-71
2023/01/16 08:52:09;;;;;;;10.65;4.63;;;;;;;;;;5021329;27;101414;-71
2023/01/16 08:54:36;;;;;;;2.15;2.00;;;;;;;;;;5025088;27;99548;-73
2023/01/16 08:57:02;;;;;;;10.45;4.10;;;;;;;;;;5028039;27;99122;-72
2023/01/16 08:59:33;;;;;;;5.53;4.20;;;;;;;;;;5025095;27;98757;-72
2023/01/16 09:02:00;;;;;;;4.80;3.83;;;;;;;;;;5019457;27;99945;-71
2023/01/16 09:04:27;;;;;;;8.27;3.83;;;;;;;;;;5018500;27;100007;-71
2023/01/16 09:06:53;;;;;;;4.70;3.35;;;;;;;;;;5034254;27;98286;-71
2023/01/16 09:09:20;;;;;;;9.55;3.42;;;;;;;;;;5022514;27;99576;-71
2023/01/16 09:14:38;;;;;;;6.22;3.20;;;;;;;;;;5021002;27;99685;-71
2023/01/16 09:17:06;;;;;;;4.35;3.03;;;;;;;;;;5023416;27;100248;-71
2023/01/16 09:19:32;;;;;;;6.85;3.53;;;;;;;;;;5027149;27;98381;-71
2023/01/16 09:21:58;;;;;;;7.03;3.15;;;;;;;;;;5021591;27;99396;-71
2023/01/16 09:24:25;;;;;;;9.00;3.95;;;;;;;;;;5020891;27;100062;-71
2023/01/16 09:26:51;;;;;;;9.30;3.75;;;;;;;;;;5034449;27;99793;-71
2023/01/16 09:29:18;;;;;;;5.72;3.95;;;;;;;;;;5019926;27;99580;-71
2023/01/16 09:31:44;;;;;;;8.13;4.30;;;;;;;;;;5021622;27;100168;-72
2023/01/16 09:34:10;;;;;;;5.07;3.33;;;;;;;;;;5033103;27;98527;-72
2023/01/16 09:36:37;;;;;;;5.47;4.00;;;;;;;;;;5025376;27;99095;-72
2023/01/16 09:39:03;;;;;;;7.13;3.35;;;;;;;;;;5024525;27;98424;-71
2023/01/16 09:44:18;;;;;;;6.80;3.20;;;;;;;;;;5021873;27;99975;-71
2023/01/16 09:46:46;;;;;;;6.38;3.90;;;;;;;;;;5022676;27;99397;-71
2023/01/16 09:49:18;;;;;;;10.75;3.80;;;;;;;;;;5025555;27;99939;-72
2023/01/16 10:00:27;;;;;;;5.50;3.25;;;;;;;;;;5021533;27;99944;-72
2023/01/16 10:02:54;;;;;;;5.47;3.30;;;;;;;;;;5022974;27;98941;-71
2023/01/16 10:05:21;;;;;;;4.50;3.30;;;;;;;;;;5018827;27;100406;-71
2023/01/16 10:07:50;;;;;;;9.05;3.80;;;;;;;;;;5023699;27;98432;-71
2023/01/16 10:10:20;;;;;;;4.90;3.75;;;;;;;;;;5026390;27;99676;-72
2023/01/16 10:12:59;;;;;;;5.18;3.70;;;;;;;;;;5026535;27;100046;-71
2023/01/16 10:15:25;;;;;;;8.85;2.97;;;;;;;;;;5023161;28;98708;-70
2023/01/16 10:18:10;;;;;;;6.90;3.05;;;;;;;;;;5019579;27;98417;-70
2023/01/16 10:20:51;;;;;;;3.30;2.95;;;;;;;;;;5025739;27;99260;-70
2023/01/16 10:23:37;;;;;;;5.82;2.97;;;;;;;;;;5029366;27;99462;-71
2023/01/16 10:26:03;;;;;;;5.18;2.60;;;;;;;;;;5027783;27;99890;-70
2023/01/16 10:28:32;;;;;;;3.22;2.88;;;;;;;;;;5023450;27;98290;-70
2023/01/16 10:31:02;;;;;;;5.47;2.90;;;;;;;;;;5029962;27;99689;-71
2023/01/16 10:33:33;;;;;;;7.70;3.78;;;;;;;;;;5024542;27;100381;-71
2023/01/16 10:36:12;;;;;;;2.80;2.50;;;;;;;;;;5021549;27;99277;-72
2023/01/16 10:38:45;;;;;;;4.03;3.45;;;;;;;;;;5030380;27;98682;-70
2023/01/16 10:49:25;;;;;;;3.17;1.80;;;;;;;;;;5031242;27;100470;-71
2023/01/16 10:49:32;;;;;;;1.60;1.50;;;;;;;;;;5028675;27;101494;-71
2023/01/16 10:52:01;;;;;;;5.15;1.50;;;;;;;;;;5028764;27;99819;-72
2023/01/16 10:54:27;;;;;;;1.27;1.27;;;;;;;;;;5025030;27;100287;-72
2023/01/16 10:56:57;;;;;;;3.65;1.70;;;;;;;;;;5029475;27;99422;-72
2023/01/16 10:59:24;;;;;;;3.15;1.35;;;;;;;;;;5028061;27;99561;-72
2023/01/16 11:01:51;;;;;;;2.03;1.45;;;;;;;;;;5017950;27;98617;-70
2023/01/16 11:04:19;;;;;;;1.30;1.20;;;;;;;;;;5021572;27;98591;-70
2023/01/16 11:06:46;;;;;;;1.50;1.42;;;;;;;;;;5022476;27;98985;-71
2023/01/16 11:09:15;;;;;;;1.73;1.40;;;;;;;;;;5024723;27;98446;-71
2023/01/16 11:20:13;;;;;;;2.90;1.48;;;;;;;;;;5022259;27;98943;-72
2023/01/16 11:22:40;;;;;;;1.95;1.52;;;;;;;;;;5026715;27;98959;-72
2023/01/16 11:25:13;;;;;;;2.13;1.65;;;;;;;;;;5025440;27;98211;-72
2023/01/16 11:27:39;;;;;;;5.25;1.70;;;;;;;;;;5026986;27;99567;-72
2023/01/16 11:30:14;;;;;;;2.03;1.65;;;;;;;;;;5012417;27;98461;-72
2023/01/16 11:32:47;;;;;;;3.70;2.17;;;;;;;;;;5018764;27;100049;-72
2023/01/16 11:35:15;;;;;;;3.65;2.08;;;;;;;;;;5023589;27;99937;-73
2023/01/16 11:37:42;;;;;;;1.70;1.60;;;;;;;;;;5018016;27;99841;-72
2023/01/16 11:40:22;;;;;;;1.65;1.52;;;;;;;;;;5018425;27;98493;-72
2023/01/16 11:46:03;;;;;;;3.45;2.25;;;;;;;;;;5019580;27;98349;-72
2023/01/16 11:48:34;;;;;;;2.05;1.90;;;;;;;;;;5038254;27;99260;-72
2023/01/16 11:51:01;;;;;;;2.40;2.20;;;;;;;;;;5032573;27;98867;-73
2023/01/16 11:53:29;;;;;;;9.25;2.60;;;;;;;;;;5021588;27;98758;-71
2023/01/16 11:56:10;;;;;;;2.83;2.13;;;;;;;;;;5029656;27;99890;-72
2023/01/16 11:58:45;;;;;;;2.70;2.50;;;;;;;;;;5031339;27;98638;-72
2023/01/16 12:01:17;;;;;;;2.00;1.90;;;;;;;;;;5022226;27;99610;-72
2023/01/16 12:04:01;;;;;;;2.87;2.30;;;;;;;;;;5021720;27;100149;-74
2023/01/16 12:06:46;;;;;;;2.65;1.95;;;;;;;;;;5025660;27;99240;-72
2023/01/16 12:09:13;;;;;;;1.95;1.85;;;;;;;;;;5010674;27;99384;-71
2023/01/16 12:11:46;;;;;;;3.97;2.35;;;;;;;;;;5025598;27;99322;-73
2023/01/16 12:14:31;;;;;;;2.15;1.90;;;;;;;;;;5023699;27;98271;-73
2023/01/16 12:17:01;;;;;;;4.43;1.95;;;;;;;;;;5020228;27;99960;-71
2023/01/16 12:19:48;;;;;;;1.85;1.65;;;;;;;;;;5012297;28;98493;-72
2023/01/16 12:22:14;;;;;;;1.83;1.73;;;;;;;;;;5017515;28;99535;-72
2023/01/16 12:24:48;;;;;;;1.75;1.65;;;;;;;;;;5013712;28;99000;-72
2023/01/16 12:27:22;;;;;;;2.03;1.80;;;;;;;;;;5029598;27;98280;-72
2023/01/16 12:30:07;;;;;;;2.58;1.80;;;;;;;;;;5022901;28;99544;-71
2023/01/16 12:32:40;;;;;;;1.50;1.48;;;;;;;;;;5024566;27;99245;-72
2023/01/16 12:35:12;;;;;;;1.80;1.70;;;;;;;;;;5026519;27;98137;-72
2023/01/16 12:37:50;;;;;;;2.10;1.65;;;;;;;;;;5033217;27;99052;-72
2023/01/16 12:40:49;;;;;;;2.30;2.10;;;;;;;;;;5028409;28;98168;-72
2023/01/16 12:43:23;;;;;;;2.28;2.05;;;;;;;;;;5000665;27;99497;-72
2023/01/16 12:45:59;;;;;;;3.10;1.83;;;;;;;;;;5027455;27;101803;-72
2023/01/16 12:48:44;;;;;;;2.35;2.03;;;;;;;;;;5016096;28;98473;-72
2023/01/16 12:51:27;;;;;;;2.15;1.80;;;;;;;;;;5022176;28;99551;-72
2023/01/16 12:54:05;;;;;;;4.45;1.77;;;;;;;;;;5020262;28;99892;-73
2023/01/16 12:56:35;;;;;;;1.88;1.75;;;;;;;;;;5028800;28;98305;-72
2023/01/16 12:59:22;;;;;;;4.53;1.80;;;;;;;;;;5028882;28;99918;-73
2023/01/16 13:01:56;;;;;;;3.25;1.70;;;;;;;;;;5024473;27;98921;-73
2023/01/16 13:04:33;;;;;;;2.92;1.92;;;;;;;;;;5020755;28;98497;-73
2023/01/16 13:07:00;;;;;;;3.08;1.77;;;;;;;;;;5027332;28;100263;-73
2023/01/16 13:13:20;;;;;;;1.83;1.70;;;;;;;;;;5027914;27;99456;-73
2023/01/16 13:15:26;;;;;;;12.57;1.80;;;;;;;;;;5016035;28;100494;-72
2023/01/16 13:18:25;;;;;;;1.58;1.48;;;;;;;;;;5016713;27;98568;-73
2023/01/16 13:20:59;;;;;;;2.33;1.90;;;;;;;;;;4993803;28;99339;-73
2023/01/16 13:23:36;;;;;;;1.63;1.52;;;;;;;;;;5031566;27;100414;-73
2023/01/16 13:26:05;;;;;;;2.15;1.65;;;;;;;;;;5022434;27;98831;-72
2023/01/16 13:28:45;;;;;;;1.92;1.67;;;;;;;;;;5026036;28;99819;-72
2023/01/16 13:31:20;;;;;;;4.93;1.52;;;;;;;;;;5027266;28;98249;-72
2023/01/16 13:33:49;;;;;;;1.90;1.75;;;;;;;;;;5027790;27;99934;-72
2023/01/16 13:36:24;;;;;;;1.48;1.38;;;;;;;;;;5017841;28;100020;-73
2023/01/16 13:39:11;;;;;;;2.40;1.60;;;;;;;;;;5016217;27;98592;-73
2023/01/16 13:41:40;;;;;;;1.65;1.55;;;;;;;;;;5029301;28;99312;-73
2023/01/16 13:47:02;;;;;;;2.55;1.55;;;;;;;;;;5032795;27;98276;-73
2023/01/16 13:49:28;;;;;;;;;;;;;;;;;;5031782;27;99954;-73
2023/01/16 13:51:55;;;;;;;1.35;1.33;;;;;;;;;;5018001;28;118815;-73
2023/01/16 13:54:24;;;;;;;1.50;1.40;;;;;;;;;;5031957;27;98588;-73
2023/01/16 13:57:07;;;;;;;1.60;1.25;;;;;;;;;;5029345;28;100114;-73
2023/01/16 13:59:40;;;;;;;2.50;1.40;;;;;;;;;;5031914;28;99851;-73
2023/01/16 14:02:06;;;;;;;;;;;;;;;;;;5031738;27;99389;-73
2023/01/16 14:04:34;;;;;;;2.22;1.20;;;;;;;;;;5020212;27;130521;-73
2023/01/16 14:10:09;;;;;;;1.67;1.58;;;;;;;;;;5026749;27;99485;-72
2023/01/16 14:12:41;;;;;;;1.73;1.58;;;;;;;;;;5023410;27;99129;-72
2023/01/16 14:18:00;;;;;;;1.45;1.38;;;;;;;;;;5021645;27;99011;-72
2023/01/16 14:20:40;;;;;;;1.48;1.42;;;;;;;;;;5032001;27;98351;-72
2023/01/16 14:24:00;;;;;;;1.50;1.40;;;;;;;;;;5019254;27;99870;-73
2023/01/16 14:26:08;;;;;;;2.60;1.58;;;;;;;;;;5021566;27;99197;-73
2023/01/16 14:28:37;;;;;;;1.30;1.30;;;;;;;;;;5016081;27;98657;-74
2023/01/16 14:31:04;;;;;;;3.80;1.83;;;;;;;;;;5024348;27;99069;-73
2023/01/16 14:33:31;;;;;;;1.95;1.60;;;;;;;;;;5028544;27;99424;-73
2023/01/16 14:35:58;;;;;;;2.63;1.73;;;;;;;;;;5024966;27;99492;-74
2023/01/16 14:38:27;;;;;;;1.60;1.50;;;;;;;;;;5026216;27;100126;-73
2023/01/16 14:55:29;;;;;;;1.60;1.50;;;;;;;;;;5021198;27;99950;-72
2023/01/16 14:57:56;;;;;;;1.52;1.50;;;;;;;;;;5019355;27;98286;-74
2023/01/16 15:00:34;;;;;;;2.00;1.75;;;;;;;;;;5029106;27;99478;-74
2023/01/16 15:03:14;;;;;;;5.78;1.80;;;;;;;;;;5023615;27;98306;-73
2023/01/16 15:05:51;;;;;;;2.22;2.10;;;;;;;;;;5025272;27;100020;-73
2023/01/16 15:08:20;;;;;;;7.30;1.75;;;;;;;;;;5016934;27;100069;-72
2023/01/16 15:10:49;;;;;;;1.77;1.67;;;;;;;;;;5013839;27;99931;-73
2023/01/16 15:22:16;;;;;;;2.75;2.55;;;;;;;;;;5026573;27;98649;-73
2023/01/16 15:24:49;;;;;;;2.45;2.13;;;;;;;;;;5019949;27;100113;-76
2023/01/16 15:27:19;;;;;;;3.75;2.17;;;;;;;;;;5021211;27;99357;-74
2023/01/16 15:29:50;;;;;;;3.88;2.40;;;;;;;;;;5021604;27;101189;-75
2023/01/16 15:32:21;;;;;;;2.67;2.55;;;;;;;;;;5022267;27;99377;-77
2023/01/16 15:35:03;;;;;;;3.08;2.88;;;;;;;;;;5024607;27;99519;-76
2023/01/16 15:37:32;;;;;;;2.70;2.50;;;;;;;;;;5035399;27;100004;-77
2023/01/16 15:39:59;;;;;;;3.42;2.78;;;;;;;;;;5029978;27;98634;-77
2023/01/16 15:47:57;;;;;;;4.57;4.00;;;;;;;;;;5023380;27;98594;-75
2023/01/16 15:50:27;;;;;;;5.35;4.53;;;;;;;;;;5030727;27;101949;-74
2023/01/16 15:52:54;;;;;;;6.10;3.83;;;;;;;;;;5028553;27;99273;-74
2023/01/16 15:55:24;;;;;;;3.22;3.03;;;;;;;;;;5023948;27;99101;-74
2023/01/16 15:57:52;;;;;;;3.17;2.97;;;;;;;;;;5019794;28;100512;-73
2023/01/16 16:00:27;;;;;;;3.00;2.80;;;;;;;;;;5016164;27;98278;-74
2023/01/16 16:02:57;;;;;;;2.92;2.72;;;;;;;;;;5035227;27;100151;-74
2023/01/16 16:05:25;;;;;;;3.47;2.80;;;;;;;;;;5026674;27;100417;-73
2023/01/16 16:07:51;;;;;;;3.45;3.03;;;;;;;;;;5021082;27;98859;-73
2023/01/16 16:11:51;;;;;;;2.50;2.33;;;;;;;;;;5026280;27;100068;-74
2023/01/16 16:13:06;;;;;;;3.05;2.85;;;;;;;;;;5025075;27;98301;-72
2023/01/16 16:18:20;;;;;;;4.32;2.50;;;;;;;;;;5009763;28;99937;-73
2023/01/16 16:20:47;;;;;;;3.42;2.65;;;;;;;;;;5012157;28;98252;-73
2023/01/16 16:23:18;;;;;;;4.97;2.70;;;;;;;;;;5019329;27;98705;-73
2023/01/16 16:25:47;;;;;;;2.75;2.65;;;;;;;;;;5025324;28;100399;-74
2023/01/16 16:28:19;;;;;;;3.83;3.28;;;;;;;;;;5018322;27;98257;-73
2023/01/16 16:30:46;;;;;;;3.55;3.33;;;;;;;;;;5015113;28;99937;-73